Bookmark and Share
Track history (hours):
 

Leonid Leonov

Last reported at 2014-Apr-25 05:32 UTC. Time now 2014-Apr-25 05:57 UTC.
Position N 46°56' E 031°57'.

Length 89 m; draft 3.1 m.

Type: Cargo ship. MMSI: 256197000.

NotesDate/timePositionNaut miles runAvg speedWind from/ knotsBaromVisibWave heightAir tempDewpointWater temp
2014-Apr-25 05:32N 46°56' E 031°57'0 0.0
2014-Apr-25 04:32N 46°56' E 031°57'0 0.0
2014-Apr-25 03:32N 46°56' E 031°57'0 0.0
2014-Apr-25 02:32N 46°56' E 031°57'0 0.0
2014-Apr-25 01:32N 46°56' E 031°57'0 0.0
2014-Apr-25 00:29N 46°56' E 031°57'0 0.0
2014-Apr-24 23:32N 46°56' E 031°57'0 0.0
2014-Apr-24 22:29N 46°56' E 031°57'0 0.0
2014-Apr-24 21:32N 46°56' E 031°57'0 0.0
2014-Apr-24 20:29N 46°56' E 031°57'0 0.0
2014-Apr-24 19:32N 46°56' E 031°57'0 0.0
2014-Apr-24 18:32N 46°56' E 031°57'0 0.0
2014-Apr-24 17:32N 46°56' E 031°57'0 0.0
2014-Apr-24 16:32N 46°56' E 031°57'0 0.0
2014-Apr-24 15:32N 46°56' E 031°57'0 0.0
2014-Apr-24 14:32N 46°56' E 031°57'0 0.0
2014-Apr-24 13:32N 46°56' E 031°57'0 0.0
2014-Apr-24 12:32N 46°56' E 031°57'0 0.0
2014-Apr-24 11:32N 46°56' E 031°57'0 0.0
2014-Apr-24 10:32N 46°56' E 031°57'0 0.0
2014-Apr-24 09:32N 46°56' E 031°57'0 0.0
2014-Apr-24 08:32N 46°56' E 031°57'0 0.0
2014-Apr-24 07:32N 46°56' E 031°57'0 0.0
2014-Apr-24 06:32N 46°56' E 031°57'0 0.0
2014-Apr-24 05:32N 46°56' E 031°57'0 0.0
2014-Apr-24 04:32N 46°56' E 031°57'0 0.0
2014-Apr-24 03:32N 46°56' E 031°57'0 0.0
2014-Apr-24 02:32N 46°56' E 031°57'0 0.0
2014-Apr-24 01:32N 46°56' E 031°57'0 0.0
2014-Apr-24 00:32N 46°56' E 031°57'0 0.0
2014-Apr-23 23:32N 46°56' E 031°57'0 0.0
2014-Apr-23 22:32N 46°56' E 031°57'0 0.0
2014-Apr-23 21:32N 46°56' E 031°57'0 0.0
2014-Apr-23 20:32N 46°56' E 031°57'0 0.0
2014-Apr-23 19:32N 46°56' E 031°57'0 0.0
2014-Apr-23 18:32N 46°56' E 031°57'0 0.0
2014-Apr-23 17:32N 46°56' E 031°57'0 0.0
2014-Apr-23 16:32N 46°56' E 031°57'0 0.0
2014-Apr-23 15:32N 46°56' E 031°57'0 0.0
2014-Apr-23 14:32N 46°56' E 031°57'0 0.0
2014-Apr-23 13:32N 46°56' E 031°57'0 0.0
2014-Apr-23 12:32N 46°56' E 031°57'0 0.0
2014-Apr-23 11:32N 46°56' E 031°57'1 0.9
2014-Apr-23 10:34N 46°56' E 031°58'5 4.1
2014-Apr-23 09:27N 46°51' E 031°58'7 7.8
2014-Apr-23 08:34N 46°45' E 031°54'7 7.3
2014-Apr-23 07:33N 46°37' E 031°53'8 8.2
2014-Apr-23 06:33N 46°36' E 031°42'8 7.6
2014-Apr-23 05:30N 46°36' E 031°30'7 7.8
2014-Apr-23 04:33N 46°35' E 031°19'18 5.7
2014-Apr-23 01:26N 46°26' E 030°57'5 1.2
2014-Apr-22 21:28N 46°23' E 031°03'  

Dump ship's entire track history

sailing weather and tide predictions

Leonid Leonov — 9HNT8 — position and weather